createdAt,value
2023-05-16T00:00:58.236Z,2.75
2023-05-16T00:03:26.935Z,5.03
2023-05-16T00:05:54.660Z,2.70
2023-05-16T00:08:22.326Z,3.60
2023-05-16T00:10:50.067Z,3.15
2023-05-16T00:13:22.185Z,2.80
2023-05-16T00:15:51.938Z,3.42
2023-05-16T00:18:22.111Z,2.75
2023-05-16T00:20:51.075Z,2.80
2023-05-16T00:23:18.799Z,2.83
2023-05-16T00:25:47.284Z,3.20
2023-05-16T00:28:15.583Z,3.70
2023-05-16T00:30:43.416Z,2.65
2023-05-16T00:33:12.890Z,2.63
2023-05-16T00:35:40.586Z,7.35
2023-05-16T00:38:08.361Z,3.13
2023-05-16T00:40:36.039Z,2.67
2023-05-16T00:43:03.742Z,2.60
2023-05-16T00:45:31.496Z,2.90
2023-05-16T00:47:59.557Z,2.67
2023-05-16T00:50:28.996Z,2.63
2023-05-16T00:52:57.206Z,3.92
2023-05-16T00:55:25.229Z,3.47
2023-05-16T00:57:53.478Z,3.10
2023-05-16T01:00:21.577Z,3.78
2023-05-16T01:02:51.674Z,2.78
2023-05-16T01:05:20.105Z,2.95
2023-05-16T01:07:49.222Z,3.20
2023-05-16T01:10:17.139Z,3.20
2023-05-16T01:12:51.364Z,2.95
2023-05-16T01:15:24.236Z,2.70
2023-05-16T01:17:58.948Z,2.92
2023-05-16T01:20:35.177Z,5.88
2023-05-16T01:23:19.016Z,2.95
2023-05-16T01:25:58.966Z,5.05
2023-05-16T01:28:28.460Z,2.78
2023-05-16T01:30:56.702Z,3.35
2023-05-16T01:33:24.626Z,3.38
2023-05-16T01:35:57.141Z,4.75
2023-05-16T01:38:27.173Z,5.38
2023-05-16T01:40:57.158Z,3.88
2023-05-16T01:43:34.355Z,4.50
2023-05-16T01:46:06.354Z,3.38
2023-05-16T01:48:37.064Z,6.57
2023-05-16T01:51:05.617Z,5.07
2023-05-16T01:53:37.926Z,5.30
2023-05-16T01:56:11.271Z,6.63
2023-05-16T01:58:40.948Z,6.25
2023-05-16T02:01:09.045Z,5.82
2023-05-16T02:03:39.960Z,4.68
2023-05-16T02:06:08.474Z,6.18
2023-05-16T02:08:36.678Z,3.70
2023-05-16T02:11:04.380Z,4.55
2023-05-16T02:13:32.267Z,12.80
2023-05-16T02:16:06.395Z,7.07
2023-05-16T02:18:34.949Z,8.65
2023-05-16T02:21:03.145Z,3.50
2023-05-16T02:23:30.876Z,5.07
2023-05-16T02:25:58.579Z,3.88
2023-05-16T02:28:26.330Z,4.82
2023-05-16T02:30:58.690Z,5.28
2023-05-16T02:33:29.076Z,4.68
2023-05-16T02:35:56.934Z,5.13
2023-05-16T02:38:27.325Z,4.47
2023-05-16T02:40:57.111Z,7.22
2023-05-16T02:43:24.854Z,7.22
2023-05-16T02:45:53.036Z,6.47
2023-05-16T02:48:21.053Z,7.30
2023-05-16T02:50:51.035Z,7.32
2023-05-16T02:53:18.916Z,8.50
2023-05-16T02:55:47.926Z,6.72
2023-05-16T02:58:16.020Z,5.72
2023-05-16T03:00:43.750Z,9.18
2023-05-16T03:03:12.481Z,7.03
2023-05-16T03:05:42.268Z,8.52
2023-05-16T03:08:11.844Z,10.18
2023-05-16T03:10:39.628Z,4.53
2023-05-16T03:13:08.803Z,8.30
2023-05-16T03:15:36.977Z,3.40
2023-05-16T03:18:04.747Z,7.38
2023-05-16T03:20:32.615Z,8.43
2023-05-16T03:23:00.649Z,6.97
2023-05-16T03:25:29.835Z,10.35
2023-05-16T03:27:57.831Z,11.60
2023-05-16T03:30:26.182Z,9.73
2023-05-16T03:32:53.922Z,8.93
2023-05-16T03:35:21.757Z,4.53
2023-05-16T03:37:49.770Z,10.48
2023-05-16T03:40:17.945Z,10.48
2023-05-16T03:42:47.862Z,6.63
2023-05-16T03:45:15.565Z,6.97
2023-05-16T03:47:43.348Z,8.77
2023-05-16T03:50:11.601Z,10.23
2023-05-16T03:52:39.322Z,7.55
2023-05-16T03:55:08.441Z,7.30
2023-05-16T03:57:38.065Z,4.63
2023-05-16T04:00:12.282Z,7.40
2023-05-16T04:02:41.445Z,10.98
2023-05-16T04:05:10.305Z,8.57
2023-05-16T04:07:38.321Z,11.43
2023-05-16T04:10:06.930Z,6.55
2023-05-16T04:12:34.701Z,9.52
2023-05-16T04:15:03.055Z,7.70
2023-05-16T04:17:32.373Z,7.80
2023-05-16T04:20:00.832Z,10.10
2023-05-16T04:22:28.734Z,6.22
2023-05-16T04:24:57.343Z,7.20
2023-05-16T04:27:25.119Z,7.88
2023-05-16T04:29:52.856Z,6.45
2023-05-16T04:32:20.804Z,6.00
2023-05-16T04:34:53.774Z,7.95
2023-05-16T04:37:21.531Z,9.68
2023-05-16T04:39:49.657Z,16.45
2023-05-16T04:42:17.567Z,4.10
2023-05-16T04:44:45.243Z,10.20
2023-05-16T04:47:13.260Z,5.95
2023-05-16T04:49:41.066Z,9.68
2023-05-16T04:52:10.779Z,6.80
2023-05-16T04:54:39.356Z,7.57
2023-05-16T04:57:07.089Z,7.50
2023-05-16T04:59:35.212Z,3.45
2023-05-16T05:02:04.273Z,4.18
2023-05-16T05:04:32.224Z,10.10
2023-05-16T05:07:00.056Z,6.03
2023-05-16T05:09:29.246Z,4.70
2023-05-16T05:11:57.210Z,8.90
2023-05-16T05:14:24.986Z,8.55
2023-05-16T05:16:52.889Z,4.60
2023-05-16T05:19:20.754Z,7.43
2023-05-16T05:21:48.528Z,5.60
2023-05-16T05:24:16.265Z,5.80
2023-05-16T05:26:45.492Z,5.22
2023-05-16T05:29:13.281Z,4.38
2023-05-16T05:31:41.202Z,5.03
2023-05-16T05:34:08.992Z,4.72
2023-05-16T05:36:36.933Z,7.80
2023-05-16T05:39:04.958Z,6.85
2023-05-16T05:41:32.873Z,6.78
2023-05-16T05:44:01.942Z,6.90
2023-05-16T05:46:30.439Z,8.60
2023-05-16T05:48:59.178Z,5.10
2023-05-16T05:51:27.816Z,6.70
2023-05-16T05:53:55.534Z,7.22
2023-05-16T05:56:24.842Z,6.32
2023-05-16T05:58:52.760Z,7.72
2023-05-16T06:01:22.651Z,3.55
2023-05-16T06:03:51.011Z,8.80
2023-05-16T06:06:19.127Z,6.63
2023-05-16T06:08:47.233Z,10.32
2023-05-16T06:11:14.973Z,4.15
2023-05-16T06:13:43.098Z,3.88
2023-05-16T06:16:11.030Z,4.85
2023-05-16T06:18:40.383Z,9.07
2023-05-16T06:21:08.290Z,6.05
2023-05-16T06:23:36.292Z,5.65
2023-05-16T06:26:04.418Z,4.10
2023-05-16T06:28:32.415Z,9.73
2023-05-16T06:31:00.613Z,4.10
2023-05-16T06:33:28.358Z,4.18
2023-05-16T06:35:57.467Z,6.18
2023-05-16T06:38:25.101Z,3.63
2023-05-16T06:40:53.199Z,3.47
2023-05-16T06:43:20.954Z,6.78
2023-05-16T06:45:48.710Z,5.38
2023-05-16T06:48:16.512Z,5.68
2023-05-16T06:50:44.818Z,4.15
2023-05-16T06:53:13.917Z,5.50
2023-05-16T06:55:42.151Z,5.07
2023-05-16T06:58:10.107Z,3.42
2023-05-16T07:00:38.626Z,4.15
2023-05-16T07:03:06.506Z,3.28
2023-05-16T07:05:34.480Z,4.18
2023-05-16T07:08:02.246Z,5.95
2023-05-16T07:10:31.359Z,3.40
2023-05-16T07:13:01.511Z,5.63
2023-05-16T07:15:29.700Z,5.68
2023-05-16T07:17:58.019Z,1.52
2023-05-16T07:20:26.255Z,4.53
2023-05-16T07:22:54.103Z,5.28
2023-05-16T07:25:21.861Z,4.85
2023-05-16T07:27:50.986Z,4.75
2023-05-16T07:30:18.798Z,5.03
2023-05-16T07:32:46.609Z,3.13
2023-05-16T07:35:14.445Z,4.45
2023-05-16T07:37:43.457Z,3.88
2023-05-16T07:40:12.092Z,3.58
2023-05-16T07:42:39.979Z,5.22
2023-05-16T07:45:10.148Z,3.70
2023-05-16T07:47:37.998Z,3.85
2023-05-16T07:50:06.363Z,7.97
2023-05-16T07:52:34.321Z,3.03
2023-05-16T07:55:02.156Z,2.88
2023-05-16T07:57:30.030Z,3.90
2023-05-16T07:59:57.740Z,2.83
2023-05-16T08:02:30.648Z,5.05
2023-05-16T08:04:59.290Z,3.47
2023-05-16T08:07:27.242Z,3.40
2023-05-16T08:09:55.539Z,2.40
2023-05-16T08:12:23.322Z,3.20
2023-05-16T08:14:51.090Z,5.80
2023-05-16T08:17:19.095Z,5.63
2023-05-16T08:19:48.216Z,3.83
2023-05-16T08:22:16.234Z,2.97
2023-05-16T08:24:44.227Z,3.08
2023-05-16T08:27:12.141Z,3.20
2023-05-16T08:29:39.854Z,2.35
2023-05-16T08:32:09.422Z,4.43
2023-05-16T08:34:37.750Z,3.60
2023-05-16T08:37:07.055Z,4.45
2023-05-16T08:39:35.442Z,3.40
2023-05-16T08:42:05.163Z,5.50
2023-05-16T08:44:32.940Z,2.88
2023-05-16T08:47:07.652Z,3.58
2023-05-16T08:49:36.181Z,4.47
2023-05-16T08:52:07.029Z,1.30
2023-05-16T08:54:35.175Z,1.70
2023-05-16T08:57:03.691Z,2.60
2023-05-16T08:59:32.659Z,6.88
2023-05-16T09:02:00.541Z,5.50
2023-05-16T09:04:28.655Z,4.80
2023-05-16T09:06:57.004Z,4.95
2023-05-16T09:09:26.318Z,3.03
2023-05-16T09:11:54.082Z,2.08
2023-05-16T09:14:21.889Z,1.88
2023-05-16T09:17:04.760Z,1.88
2023-05-16T09:19:38.421Z,2.22
2023-05-16T09:22:07.948Z,2.42
2023-05-16T09:24:39.422Z,4.72
2023-05-16T09:27:10.847Z,6.47
2023-05-16T09:29:38.641Z,2.08
2023-05-16T09:32:11.320Z,2.78
2023-05-16T09:34:40.786Z,3.28
2023-05-16T09:37:11.388Z,2.88
2023-05-16T09:39:43.186Z,2.75
2023-05-16T09:42:12.479Z,1.88
2023-05-16T09:44:41.171Z,4.20
2023-05-16T09:47:08.983Z,4.25
2023-05-16T09:49:38.355Z,3.97
2023-05-16T09:52:06.675Z,3.72
2023-05-16T09:54:35.537Z,4.70
2023-05-16T09:57:05.847Z,2.60
2023-05-16T09:59:37.311Z,3.70
2023-05-16T10:02:06.640Z,7.75
2023-05-16T10:04:35.604Z,7.72
2023-05-16T10:07:06.791Z,4.43
2023-05-16T10:09:34.928Z,4.40
2023-05-16T10:12:06.489Z,4.22
2023-05-16T10:14:37.468Z,3.50
2023-05-16T10:17:06.377Z,1.90
2023-05-16T10:19:37.773Z,2.78
2023-05-16T10:22:07.557Z,5.38
2023-05-16T10:24:41.634Z,3.75
2023-05-16T10:27:11.082Z,7.22
2023-05-16T10:29:52.893Z,4.35
2023-05-16T10:32:24.579Z,4.45
2023-05-16T10:34:53.473Z,4.97
2023-05-16T10:37:21.258Z,5.15
2023-05-16T10:39:49.321Z,2.65
2023-05-16T10:42:20.120Z,3.88
2023-05-16T10:44:58.482Z,3.00
2023-05-16T10:47:32.623Z,3.28
2023-05-16T10:50:00.431Z,2.15
2023-05-16T10:52:34.740Z,4.28
2023-05-16T10:55:05.163Z,3.72
2023-05-16T10:57:36.445Z,3.35
2023-05-16T11:00:10.165Z,6.65
2023-05-16T11:02:42.365Z,5.05
2023-05-16T11:05:14.665Z,2.78
2023-05-16T11:07:43.243Z,3.50
2023-05-16T11:10:12.444Z,2.67
2023-05-16T11:12:46.717Z,2.65
2023-05-16T11:15:22.957Z,3.92
2023-05-16T11:17:50.823Z,4.55
2023-05-16T11:20:28.439Z,4.00
2023-05-16T11:23:22.380Z,4.18
2023-05-16T11:25:53.964Z,3.40
2023-05-16T11:28:23.858Z,3.20
2023-05-16T11:30:55.210Z,2.63
2023-05-16T11:33:23.649Z,3.40
2023-05-16T11:36:15.052Z,1.90
2023-05-16T11:38:44.419Z,2.83
2023-05-16T11:41:12.766Z,6.20
2023-05-16T11:43:44.116Z,4.30
2023-05-16T11:46:13.576Z,7.00
2023-05-16T11:48:42.045Z,6.10
2023-05-16T11:51:10.910Z,4.65
2023-05-16T11:53:39.693Z,3.45
2023-05-16T11:56:09.330Z,5.82
2023-05-16T11:58:38.330Z,3.33
2023-05-16T12:01:08.231Z,8.73
2023-05-16T12:03:36.988Z,3.80
2023-05-16T12:06:06.093Z,3.88
2023-05-16T12:08:34.608Z,6.10
2023-05-16T12:11:03.491Z,3.17
2023-05-16T12:13:31.424Z,2.33
2023-05-16T12:16:00.473Z,7.50
2023-05-16T12:18:30.240Z,3.17
2023-05-16T12:20:58.231Z,1.90
2023-05-16T12:23:27.737Z,4.32
2023-05-16T12:25:58.005Z,3.65
2023-05-16T12:28:26.206Z,3.15
2023-05-16T12:30:54.313Z,3.75
2023-05-16T12:33:22.206Z,2.50
2023-05-16T12:35:52.832Z,3.03
2023-05-16T12:38:20.898Z,4.85
2023-05-16T12:40:49.221Z,2.50
2023-05-16T12:43:18.030Z,2.95
2023-05-16T12:45:51.266Z,4.18
2023-05-16T12:48:19.774Z,3.42
2023-05-16T12:50:48.621Z,4.60
2023-05-16T12:53:19.125Z,3.80
2023-05-16T12:55:47.298Z,3.30
2023-05-16T12:58:15.107Z,5.13
2023-05-16T13:00:43.291Z,1.95
2023-05-16T13:03:12.392Z,3.13
2023-05-16T13:05:40.267Z,1.55
2023-05-16T13:08:08.080Z,1.50
2023-05-16T13:10:37.461Z,2.63
2023-05-16T13:13:05.146Z,3.85
2023-05-16T13:15:33.300Z,5.82
2023-05-16T13:18:03.676Z,2.20
2023-05-16T13:20:31.566Z,5.50
2023-05-16T13:22:59.373Z,3.97
2023-05-16T13:25:27.427Z,3.25
2023-05-16T13:27:56.708Z,3.80
2023-05-16T13:30:25.116Z,3.50
2023-05-16T13:32:52.931Z,2.28
2023-05-16T13:35:21.643Z,2.03
2023-05-16T13:37:49.413Z,2.42
2023-05-16T13:40:17.378Z,2.88
2023-05-16T13:42:45.073Z,1.77
2023-05-16T13:45:14.174Z,3.50
2023-05-16T13:47:42.076Z,2.40
2023-05-16T13:50:10.438Z,6.65
2023-05-16T13:52:38.784Z,2.70
2023-05-16T13:55:07.934Z,1.83
2023-05-16T13:57:35.870Z,2.90
2023-05-16T14:00:43.638Z,3.13
2023-05-16T14:02:55.399Z,4.68
2023-05-16T14:05:23.815Z,5.43
2023-05-16T14:07:52.019Z,2.85
2023-05-16T14:10:20.059Z,2.00
2023-05-16T14:12:49.049Z,2.60
2023-05-16T14:15:16.806Z,2.45
2023-05-16T14:17:44.571Z,2.95
2023-05-16T14:20:15.456Z,5.10
2023-05-16T14:22:43.361Z,5.03
2023-05-16T14:25:11.272Z,3.95
2023-05-16T14:27:38.983Z,2.63
2023-05-16T14:30:08.214Z,1.95
2023-05-16T14:32:37.324Z,3.80
2023-05-16T14:35:06.488Z,6.32
2023-05-16T14:37:35.609Z,3.75
2023-05-16T14:40:05.113Z,5.15
2023-05-16T14:42:33.683Z,6.35
2023-05-16T14:45:01.925Z,6.78
2023-05-16T14:47:31.244Z,4.43
2023-05-16T14:49:59.796Z,1.92
2023-05-16T14:52:27.566Z,3.20
2023-05-16T14:54:57.665Z,2.42
2023-05-16T14:57:25.576Z,3.10
2023-05-16T14:59:53.424Z,3.13
2023-05-16T15:02:21.303Z,1.75
2023-05-16T15:04:49.658Z,2.38
2023-05-16T15:07:18.153Z,4.68
2023-05-16T15:09:46.232Z,1.88
2023-05-16T15:12:16.243Z,3.15
2023-05-16T15:14:43.956Z,3.97
2023-05-16T15:17:11.888Z,2.58
2023-05-16T15:19:39.644Z,4.28
2023-05-16T15:22:08.835Z,4.22
2023-05-16T15:24:37.626Z,3.05
2023-05-16T15:27:06.100Z,5.35
2023-05-16T15:29:35.870Z,5.97
2023-05-16T15:32:05.793Z,4.38
2023-05-16T15:34:36.320Z,11.73
2023-05-16T15:37:04.575Z,7.75
2023-05-16T15:39:32.428Z,6.65
2023-05-16T15:42:09.104Z,4.35
2023-05-16T15:44:39.985Z,7.53
2023-05-16T15:47:08.256Z,4.88
2023-05-16T15:49:37.195Z,5.53
2023-05-16T15:52:06.080Z,3.78
2023-05-16T15:54:33.909Z,4.65
2023-05-16T15:57:01.827Z,4.88
2023-05-16T15:59:29.579Z,4.88
2023-05-16T16:01:58.761Z,3.10
2023-05-16T16:04:27.382Z,3.95
2023-05-16T16:06:55.188Z,3.65
2023-05-16T16:09:22.974Z,5.05
2023-05-16T16:11:55.985Z,2.72
2023-05-16T16:14:24.562Z,5.03
2023-05-16T16:16:52.971Z,3.67
2023-05-16T16:19:22.227Z,2.90
2023-05-16T16:21:50.053Z,5.70
2023-05-16T16:24:18.051Z,6.47
2023-05-16T16:26:46.224Z,6.40
2023-05-16T16:29:14.046Z,2.92
2023-05-16T16:31:41.977Z,2.72
2023-05-16T16:34:09.983Z,3.75
2023-05-16T16:36:39.467Z,4.32
2023-05-16T16:39:07.334Z,4.32
2023-05-16T16:41:35.126Z,4.90
2023-05-16T16:44:03.121Z,3.40
2023-05-16T16:46:31.074Z,5.22
2023-05-16T16:48:59.471Z,3.53
2023-05-16T16:51:27.796Z,3.63
2023-05-16T16:53:58.605Z,5.55
2023-05-16T16:56:27.942Z,4.32
2023-05-16T16:58:55.704Z,5.28
2023-05-16T17:01:23.731Z,5.22
2023-05-16T17:03:52.200Z,5.38
2023-05-16T17:06:20.135Z,5.97
2023-05-16T17:08:47.882Z,3.67
2023-05-16T17:11:22.676Z,6.03
2023-05-16T17:13:51.698Z,4.75
2023-05-16T17:16:19.549Z,3.30
2023-05-16T17:18:47.885Z,3.05
2023-05-16T17:21:16.098Z,5.90
2023-05-16T17:23:44.354Z,4.75
2023-05-16T17:26:13.384Z,8.43
2023-05-16T17:28:42.618Z,3.80
2023-05-16T17:31:10.547Z,4.43
2023-05-16T17:33:38.860Z,6.20
2023-05-16T17:36:07.509Z,5.20
2023-05-16T17:38:35.808Z,6.60
2023-05-16T17:41:03.988Z,8.13
2023-05-16T17:43:31.812Z,5.80
2023-05-16T17:46:01.273Z,7.25
2023-05-16T17:48:28.969Z,6.72
2023-05-16T17:50:57.038Z,9.35
2023-05-16T17:53:25.226Z,5.90
2023-05-16T17:55:53.402Z,9.60
2023-05-16T17:58:21.239Z,9.60
2023-05-16T18:00:49.365Z,10.65
2023-05-16T18:03:18.892Z,8.20
2023-05-16T18:05:48.808Z,14.27
2023-05-16T18:08:16.602Z,10.90
2023-05-16T18:13:18.008Z,11.98
2023-05-16T18:15:46.280Z,11.57
2023-05-16T18:18:14.051Z,13.93
2023-05-16T18:20:44.285Z,10.60
2023-05-16T18:23:11.953Z,15.27
2023-05-16T18:25:39.804Z,24.38
2023-05-16T18:28:07.969Z,9.82
2023-05-16T18:30:37.882Z,15.13
2023-05-16T18:33:07.147Z,12.95
2023-05-16T18:35:35.053Z,14.13
2023-05-16T18:38:04.657Z,14.80
2023-05-16T18:40:35.324Z,10.43
2023-05-16T18:43:03.722Z,12.32
2023-05-16T18:45:31.880Z,12.88
2023-05-16T18:47:59.755Z,18.85
2023-05-16T18:50:28.377Z,14.00
2023-05-16T18:52:57.668Z,15.18
2023-05-16T18:55:27.170Z,12.65
2023-05-16T18:57:55.430Z,14.48
2023-05-16T19:00:29.447Z,17.20
2023-05-16T19:02:57.219Z,14.80
2023-05-16T19:05:25.238Z,12.38
2023-05-16T19:07:53.190Z,14.32
2023-05-16T19:10:20.945Z,13.93
2023-05-16T19:12:50.119Z,12.88
2023-05-16T19:15:17.863Z,13.77
2023-05-16T19:17:45.781Z,14.82
2023-05-16T19:20:14.027Z,12.07
2023-05-16T19:22:42.157Z,12.95
2023-05-16T19:25:10.623Z,15.05
2023-05-16T19:27:38.440Z,15.73
2023-05-16T19:30:09.261Z,14.00
2023-05-16T19:32:37.283Z,19.42
2023-05-16T19:35:06.402Z,11.98
2023-05-16T19:37:34.182Z,13.60
2023-05-16T19:40:02.122Z,14.73
2023-05-16T19:42:29.944Z,12.75
2023-05-16T19:44:58.353Z,20.55
2023-05-16T19:47:28.221Z,13.60
2023-05-16T19:49:56.430Z,16.63
2023-05-16T19:52:26.092Z,19.33
2023-05-16T19:54:56.888Z,12.82
2023-05-16T19:57:24.631Z,18.98
2023-05-16T19:59:52.387Z,10.85
2023-05-16T20:02:21.311Z,18.38
2023-05-16T20:04:52.723Z,16.45
2023-05-16T20:07:20.627Z,15.82
2023-05-16T20:09:48.384Z,12.55
2023-05-16T20:12:16.205Z,19.15
2023-05-16T20:14:43.962Z,13.20
2023-05-16T20:17:12.022Z,16.70
2023-05-16T20:19:44.080Z,18.13
2023-05-16T20:22:13.820Z,14.30
2023-05-16T20:24:41.486Z,14.15
2023-05-16T20:27:09.286Z,11.20
2023-05-16T20:29:36.990Z,12.52
2023-05-16T20:32:05.940Z,19.83
2023-05-16T20:34:33.696Z,13.15
2023-05-16T20:37:01.901Z,13.85
2023-05-16T20:39:31.760Z,14.75
2023-05-16T20:42:00.062Z,16.25
2023-05-16T20:44:29.315Z,15.32
2023-05-16T20:46:58.163Z,17.60
2023-05-16T20:49:28.498Z,17.05
2023-05-16T20:51:56.455Z,13.98
2023-05-16T20:54:24.323Z,13.95
2023-05-16T20:56:53.485Z,18.10
2023-05-16T20:59:21.234Z,14.43
2023-05-16T21:01:49.152Z,18.70
2023-05-16T21:04:16.932Z,16.70
2023-05-16T21:06:45.330Z,17.83
2023-05-16T21:09:13.108Z,21.08
2023-05-16T21:11:40.844Z,23.95
2023-05-16T21:14:10.307Z,15.95
2023-05-16T21:16:38.323Z,16.20
2023-05-16T21:19:06.480Z,18.63
2023-05-16T21:21:34.888Z,19.95
2023-05-16T21:24:03.576Z,14.90
2023-05-16T21:26:31.433Z,16.55
2023-05-16T21:28:59.530Z,16.27
2023-05-16T21:31:28.705Z,19.77
2023-05-16T21:33:56.708Z,17.13
2023-05-16T21:36:24.592Z,17.52
2023-05-16T21:38:53.271Z,17.15
2023-05-16T21:41:21.680Z,16.73
2023-05-16T21:43:51.829Z,14.88
2023-05-16T21:46:19.805Z,22.90
2023-05-16T21:48:48.931Z,18.15
2023-05-16T21:51:16.833Z,16.05
2023-05-16T21:53:46.476Z,15.85
2023-05-16T21:56:14.304Z,13.68
2023-05-16T21:58:42.425Z,14.70
2023-05-16T22:01:10.412Z,19.27
2023-05-16T22:03:38.470Z,17.35
2023-05-16T22:06:07.979Z,23.15
2023-05-16T22:08:36.120Z,17.98
2023-05-16T22:11:04.325Z,13.70
2023-05-16T22:13:33.024Z,19.55
2023-05-16T22:16:04.618Z,20.42
2023-05-16T22:18:33.882Z,18.90
2023-05-16T22:21:02.062Z,15.75
2023-05-16T22:23:31.344Z,15.88
2023-05-16T22:25:59.780Z,13.60
2023-05-16T22:28:27.502Z,19.05
2023-05-16T22:30:55.344Z,16.55
2023-05-16T22:33:24.112Z,18.38
2023-05-16T22:35:51.975Z,16.10
2023-05-16T22:38:20.295Z,20.42
2023-05-16T22:40:49.438Z,17.55
2023-05-16T22:43:18.016Z,18.40
2023-05-16T22:45:45.741Z,17.00
2023-05-16T22:48:13.640Z,11.70
2023-05-16T22:50:41.654Z,25.27
2023-05-16T22:53:09.364Z,11.98
2023-05-16T22:55:37.169Z,11.60
2023-05-16T22:58:06.220Z,12.57
2023-05-16T23:00:34.428Z,17.10
2023-05-16T23:03:02.359Z,15.05
2023-05-16T23:05:30.860Z,19.33
2023-05-16T23:07:58.611Z,15.50
2023-05-16T23:10:27.031Z,15.80
2023-05-16T23:12:55.033Z,16.08
2023-05-16T23:15:24.892Z,10.80
2023-05-16T23:17:52.726Z,12.45
2023-05-16T23:20:20.588Z,11.77
2023-05-16T23:22:48.538Z,16.48
2023-05-16T23:25:16.226Z,14.20
2023-05-16T23:27:44.130Z,16.60
2023-05-16T23:30:12.832Z,13.43
2023-05-16T23:32:42.187Z,13.43
2023-05-16T23:35:10.525Z,14.90
2023-05-16T23:37:38.263Z,14.98
2023-05-16T23:40:07.707Z,14.93
2023-05-16T23:42:36.716Z,17.95
2023-05-16T23:45:05.120Z,18.15
2023-05-16T23:47:33.008Z,12.63
2023-05-16T23:50:03.478Z,13.98
2023-05-16T23:52:31.277Z,16.33
2023-05-16T23:54:59.473Z,11.77
2023-05-16T23:57:27.349Z,15.55
2023-05-16T23:59:55.171Z,13.35
